createdAt,value
2024-04-15T00:01:11.768Z,100995.03
2024-04-15T00:03:38.730Z,100996.34
2024-04-15T00:06:05.690Z,100981.94
2024-04-15T00:08:32.631Z,100985.66
2024-04-15T00:10:59.540Z,100983.13
2024-04-15T00:13:26.441Z,100978.34
2024-04-15T00:15:53.422Z,100972.13
2024-04-15T00:18:20.366Z,100969.88
2024-04-15T00:20:47.258Z,100958.50
2024-04-15T00:23:14.166Z,100959.53
2024-04-15T00:25:41.041Z,100960.16
2024-04-15T00:28:08.141Z,100958.03
2024-04-15T00:30:35.061Z,100954.16
2024-04-15T00:33:02.084Z,100956.72
2024-04-15T00:35:29.499Z,100946.78
2024-04-15T00:37:56.534Z,100954.13
2024-04-15T00:40:23.411Z,100960.16
2024-04-15T00:42:50.331Z,100952.88
2024-04-15T00:45:17.225Z,100965.13
2024-04-15T00:47:44.143Z,100959.91
2024-04-15T00:50:11.085Z,100959.31
2024-04-15T00:52:37.984Z,100953.84
2024-04-15T00:55:04.998Z,100949.44
2024-04-15T00:57:31.887Z,100951.84
2024-04-15T00:59:58.760Z,100944.25
2024-04-15T01:02:25.795Z,100940.63
2024-04-15T01:04:52.723Z,100930.75
2024-04-15T01:07:19.749Z,100923.66
2024-04-15T01:09:46.755Z,100929.78
2024-04-15T01:12:13.625Z,100921.47
2024-04-15T01:14:40.468Z,100923.34
2024-04-15T01:17:07.360Z,100925.03
2024-04-15T01:19:34.216Z,100929.78
2024-04-15T01:22:01.114Z,100919.69
2024-04-15T01:24:28.094Z,100928.97
2024-04-15T01:26:54.942Z,100921.09
2024-04-15T01:29:21.806Z,100920.13
2024-04-15T01:31:48.730Z,100912.69
2024-04-15T01:34:15.760Z,100910.13
2024-04-15T01:36:42.708Z,100912.31
2024-04-15T01:39:09.629Z,100899.94
2024-04-15T01:41:36.532Z,100889.19
2024-04-15T01:44:03.418Z,100892.28
2024-04-15T01:46:30.256Z,100875.06
2024-04-15T01:48:57.208Z,100882.78
2024-04-15T01:51:24.142Z,100878.94
2024-04-15T01:53:50.988Z,100885.66
2024-04-15T01:56:17.859Z,100881.41
2024-04-15T01:58:44.758Z,100888.34
2024-04-15T02:01:11.693Z,100879.00
2024-04-15T02:03:38.691Z,100889.91
2024-04-15T02:06:05.592Z,100876.97
2024-04-15T02:08:32.456Z,100865.03
2024-04-15T02:10:59.402Z,100858.06
2024-04-15T02:13:26.290Z,100851.09
2024-04-15T02:15:53.217Z,100851.56
2024-04-15T02:18:20.322Z,100848.59
2024-04-15T02:20:47.298Z,100848.25
2024-04-15T02:23:14.170Z,100837.16
2024-04-15T02:25:41.084Z,100845.56
2024-04-15T02:28:07.990Z,100843.00
2024-04-15T02:30:34.870Z,100854.28
2024-04-15T02:33:01.791Z,100851.19
2024-04-15T02:35:28.738Z,100842.31
2024-04-15T02:37:55.653Z,100839.75
2024-04-15T02:40:22.595Z,100843.47
2024-04-15T02:42:49.492Z,100842.59
2024-04-15T02:45:16.428Z,100835.06
2024-04-15T02:47:43.435Z,100832.38
2024-04-15T02:50:10.361Z,100829.81
2024-04-15T02:52:37.242Z,100823.00
2024-04-15T02:55:04.190Z,100831.81
2024-04-15T02:57:31.245Z,100812.13
2024-04-15T02:59:58.095Z,100816.34
2024-04-15T03:02:25.015Z,100810.38
2024-04-15T03:04:51.971Z,100806.94
2024-04-15T03:07:18.963Z,100804.88
2024-04-15T03:09:45.943Z,100805.69
2024-04-15T03:12:12.816Z,100803.88
2024-04-15T03:14:39.711Z,100803.78
2024-04-15T03:17:06.670Z,100803.88
2024-04-15T03:19:33.612Z,100799.84
2024-04-15T03:22:00.569Z,100798.06
2024-04-15T03:24:27.482Z,100789.50
2024-04-15T03:26:54.339Z,100777.63
2024-04-15T03:29:21.214Z,100774.44
2024-04-15T03:31:48.140Z,100771.91
2024-04-15T03:34:15.142Z,100753.53
2024-04-15T03:36:42.128Z,100750.34
2024-04-15T03:39:09.043Z,100735.84
2024-04-15T03:41:35.934Z,100719.25
2024-04-15T03:44:02.796Z,100717.88
2024-04-15T03:46:29.668Z,100712.66
2024-04-15T03:48:56.576Z,100706.09
2024-04-15T03:51:23.488Z,100689.63
2024-04-15T03:53:50.344Z,100686.97
2024-04-15T03:56:17.254Z,100693.47
2024-04-15T03:58:44.166Z,100692.03
2024-04-15T04:01:11.185Z,100683.75
2024-04-15T04:03:38.133Z,100691.66
2024-04-15T04:06:11.240Z,100688.28
2024-04-15T04:08:39.246Z,100683.75
2024-04-15T04:11:06.185Z,100682.25
2024-04-15T04:13:33.075Z,100685.22
2024-04-15T04:15:59.993Z,100689.47
2024-04-15T04:18:26.956Z,100684.31
2024-04-15T04:20:53.884Z,100701.75
2024-04-15T04:23:20.760Z,100710.31
2024-04-15T04:25:47.647Z,100711.84
2024-04-15T04:28:14.574Z,100710.25
2024-04-15T04:30:41.469Z,100711.41
2024-04-15T04:33:08.375Z,100710.25
2024-04-15T04:35:35.299Z,100712.63
2024-04-15T04:38:02.240Z,100717.19
2024-04-15T04:40:29.126Z,100719.34
2024-04-15T04:42:56.091Z,100721.50
2024-04-15T04:45:22.980Z,100726.25
2024-04-15T04:47:49.940Z,100730.69
2024-04-15T04:50:16.882Z,100724.28
2024-04-15T04:52:43.797Z,100728.81
2024-04-15T04:55:10.751Z,100727.13
2024-04-15T04:57:37.679Z,100730.06
2024-04-15T05:00:04.572Z,100732.69
2024-04-15T05:02:31.500Z,100728.06
2024-04-15T05:04:58.430Z,100731.69
2024-04-15T05:07:25.298Z,100739.94
2024-04-15T05:09:52.257Z,100743.78
2024-04-15T05:12:19.180Z,100736.81
2024-04-15T05:14:46.063Z,100730.06
2024-04-15T05:17:12.978Z,100731.28
2024-04-15T05:19:39.866Z,100730.03
2024-04-15T05:22:06.800Z,100732.69
2024-04-15T05:24:33.740Z,100735.00
2024-04-15T05:27:00.592Z,100696.44
2024-04-15T05:29:27.486Z,100717.28
2024-04-15T05:31:54.447Z,100717.34
2024-04-15T05:34:21.383Z,100722.41
2024-04-15T05:36:48.351Z,100724.91
2024-04-15T05:39:15.305Z,100722.94
2024-04-15T05:41:42.183Z,100711.66
2024-04-15T05:44:09.066Z,100713.34
2024-04-15T05:46:35.986Z,100701.28
2024-04-15T05:49:02.891Z,100704.19
2024-04-15T05:51:29.766Z,100699.16
2024-04-15T05:53:56.635Z,100693.97
2024-04-15T05:56:23.526Z,100691.22
2024-04-15T05:58:50.395Z,100692.28
2024-04-15T06:01:17.372Z,100684.50
2024-04-15T06:03:44.344Z,100683.88
2024-04-15T06:06:11.267Z,100683.38
2024-04-15T06:08:38.170Z,100671.00
2024-04-15T06:11:05.094Z,100664.22
2024-04-15T06:13:31.967Z,100671.19
2024-04-15T06:15:58.904Z,100667.84
2024-04-15T06:18:25.899Z,100672.94
2024-04-15T06:20:52.846Z,100666.16
2024-04-15T06:23:19.737Z,100661.59
2024-04-15T06:25:46.678Z,100661.25
2024-04-15T06:28:13.550Z,100661.09
2024-04-15T06:30:40.471Z,100652.59
2024-04-15T06:33:07.639Z,100645.66
2024-04-15T06:35:34.568Z,100650.88
2024-04-15T06:38:01.437Z,100638.19
2024-04-15T06:40:28.344Z,100637.84
2024-04-15T06:42:55.294Z,100640.09
2024-04-15T06:45:22.328Z,100635.28
2024-04-15T06:47:49.218Z,100633.75
2024-04-15T06:50:16.148Z,100625.97
2024-04-15T06:52:43.080Z,100619.00
2024-04-15T06:55:10.061Z,100617.28
2024-04-15T06:57:36.959Z,100606.81
2024-04-15T07:00:03.861Z,100606.66
2024-04-15T07:02:30.898Z,100598.69
2024-04-15T07:04:57.923Z,100601.13
2024-04-15T07:07:24.915Z,100596.06
2024-04-15T07:09:54.763Z,100592.69
2024-04-15T07:12:22.997Z,100582.47
2024-04-15T07:14:49.869Z,100602.00
2024-04-15T07:17:16.876Z,100598.06
2024-04-15T07:19:43.794Z,100604.47
2024-04-15T07:22:10.688Z,100590.16
2024-04-15T07:24:37.600Z,100582.41
2024-04-15T07:27:04.523Z,100587.41
2024-04-15T07:29:31.430Z,100576.88
2024-04-15T07:31:58.470Z,100568.16
2024-04-15T07:34:25.454Z,100557.09
2024-04-15T07:36:52.466Z,100549.88
2024-04-15T07:39:19.331Z,100540.41
2024-04-15T07:41:46.181Z,100548.69
2024-04-15T07:44:13.026Z,100540.63
2024-04-15T07:46:39.962Z,100538.94
2024-04-15T07:49:06.996Z,100536.94
2024-04-15T07:51:34.130Z,100546.16
2024-04-15T07:54:01.049Z,100542.09
2024-04-15T07:56:27.964Z,100527.06
2024-04-15T07:58:54.835Z,100520.47
2024-04-15T08:01:21.813Z,100534.09
2024-04-15T08:03:48.844Z,100533.53
2024-04-15T08:06:15.838Z,100536.75
2024-04-15T08:08:42.750Z,100536.06
2024-04-15T08:11:09.679Z,100538.41
2024-04-15T08:13:36.582Z,100527.91
2024-04-15T08:16:03.627Z,100526.81
2024-04-15T08:18:30.573Z,100524.16
2024-04-15T08:20:57.493Z,100533.50
2024-04-15T08:23:24.392Z,100523.34
2024-04-15T08:25:51.315Z,100515.91
2024-04-15T08:28:18.318Z,100517.13
2024-04-15T08:30:45.225Z,100506.38
2024-04-15T08:33:12.359Z,100508.06
2024-04-15T08:35:39.305Z,100511.28
2024-04-15T08:38:06.263Z,100496.41
2024-04-15T08:40:33.189Z,100509.22
2024-04-15T08:43:00.086Z,100491.88
2024-04-15T08:45:27.027Z,100489.81
2024-04-15T08:47:54.496Z,100498.03
2024-04-15T08:50:21.682Z,100497.03
2024-04-15T08:52:48.593Z,100496.72
2024-04-15T08:55:15.518Z,100472.69
2024-04-15T08:57:42.421Z,100478.47
2024-04-15T09:00:09.311Z,100472.84
2024-04-15T09:02:36.277Z,100463.72
2024-04-15T09:05:03.291Z,100466.47
2024-04-15T09:07:30.361Z,100464.69
2024-04-15T09:09:57.339Z,100457.81
2024-04-15T09:12:24.222Z,100452.72
2024-04-15T09:14:51.128Z,100452.72
2024-04-15T09:17:18.172Z,100452.59
2024-04-15T09:19:45.183Z,100454.78
2024-04-15T09:22:12.119Z,100443.38
2024-04-15T09:24:39.015Z,100428.84
2024-04-15T09:27:05.919Z,100424.78
2024-04-15T09:29:32.829Z,100408.81
2024-04-15T09:31:59.798Z,100406.47
2024-04-15T09:34:26.737Z,100410.53
2024-04-15T09:36:53.718Z,100406.50
2024-04-15T09:39:20.620Z,100400.38
2024-04-15T09:41:47.518Z,100385.00
2024-04-15T09:44:14.411Z,100385.81
2024-04-15T09:46:41.310Z,100372.28
2024-04-15T09:49:08.247Z,100369.97
2024-04-15T09:51:35.160Z,100361.06
2024-04-15T09:54:02.036Z,100362.00
2024-04-15T09:56:28.941Z,100360.91
2024-04-15T09:58:55.825Z,100355.50
2024-04-15T10:01:22.841Z,100355.34
2024-04-15T10:03:49.851Z,100344.19
2024-04-15T10:06:16.744Z,100348.69
2024-04-15T10:08:43.642Z,100353.81
2024-04-15T10:11:10.578Z,100339.91
2024-04-15T10:13:37.527Z,100336.06
2024-04-15T10:16:08.518Z,100329.97
2024-04-15T10:18:40.028Z,100321.25
2024-04-15T10:21:06.870Z,100308.16
2024-04-15T10:23:33.758Z,100312.88
2024-04-15T10:26:00.630Z,100297.22
2024-04-15T10:28:27.586Z,100285.16
2024-04-15T10:30:54.595Z,100294.19
2024-04-15T10:33:21.817Z,100303.00
2024-04-15T10:35:48.785Z,100310.91
2024-04-15T10:38:15.683Z,100299.44
2024-04-15T10:40:42.640Z,100293.59
2024-04-15T10:43:09.548Z,100290.75
2024-04-15T10:45:36.440Z,100290.66
2024-04-15T10:48:03.415Z,100297.31
2024-04-15T10:50:30.343Z,100278.19
2024-04-15T10:52:57.234Z,100273.31
2024-04-15T10:55:24.206Z,100268.53
2024-04-15T10:57:51.181Z,100267.88
2024-04-15T11:00:18.091Z,100272.84
2024-04-15T11:02:45.098Z,100258.59
2024-04-15T11:05:12.150Z,100259.34
2024-04-15T11:07:39.361Z,100253.84
2024-04-15T11:10:06.258Z,100254.25
2024-04-15T11:12:33.164Z,100252.72
2024-04-15T11:15:00.050Z,100240.88
2024-04-15T11:17:27.019Z,100239.19
2024-04-15T11:19:53.970Z,100233.56
2024-04-15T11:22:21.759Z,100229.19
2024-04-15T11:24:49.025Z,100224.75
2024-04-15T11:27:15.946Z,100236.41
2024-04-15T11:29:52.082Z,100227.16
2024-04-15T11:32:25.795Z,100242.31
2024-04-15T11:34:52.763Z,100234.16
2024-04-15T11:37:19.729Z,100245.63
2024-04-15T11:39:46.659Z,100236.22
2024-04-15T11:42:13.540Z,100234.94
2024-04-15T11:44:40.449Z,100228.28
2024-04-15T11:47:07.404Z,100217.72
2024-04-15T11:49:34.419Z,100208.63
2024-04-15T11:52:01.398Z,100206.03
2024-04-15T11:54:28.351Z,100198.84
2024-04-15T11:56:55.222Z,100182.81
2024-04-15T11:59:22.082Z,100169.41
2024-04-15T12:01:48.982Z,100164.00
2024-04-15T12:04:19.356Z,100165.50
2024-04-15T12:06:46.891Z,100154.03
2024-04-15T12:09:13.768Z,100138.41
2024-04-15T12:11:40.709Z,100131.06
2024-04-15T12:14:07.622Z,100112.91
2024-04-15T12:16:34.851Z,100120.88
2024-04-15T12:19:01.876Z,100111.09
2024-04-15T12:21:31.048Z,100100.94
2024-04-15T12:23:59.319Z,100097.59
2024-04-15T12:26:26.198Z,100077.72
2024-04-15T12:28:53.117Z,100079.63
2024-04-15T12:31:19.998Z,100064.84
2024-04-15T12:33:48.635Z,100060.66
2024-04-15T12:36:15.561Z,100054.38
2024-04-15T12:38:42.450Z,100047.63
2024-04-15T12:41:09.309Z,100047.38
2024-04-15T12:43:36.199Z,100057.78
2024-04-15T12:46:03.183Z,100050.72
2024-04-15T12:48:30.180Z,100043.22
2024-04-15T12:50:57.088Z,100029.34
2024-04-15T12:53:23.970Z,100018.56
2024-04-15T12:55:50.981Z,100007.19
2024-04-15T12:58:17.907Z,99997.22
2024-04-15T13:00:44.795Z,99996.56
2024-04-15T13:03:11.760Z,99982.94
2024-04-15T13:05:38.688Z,99972.50
2024-04-15T13:08:05.553Z,99966.34
2024-04-15T13:10:32.593Z,99964.13
2024-04-15T13:12:59.550Z,99952.31
2024-04-15T13:15:26.438Z,99940.03
2024-04-15T13:17:53.328Z,99938.53
2024-04-15T13:20:20.267Z,99924.28
2024-04-15T13:22:47.136Z,99924.06
2024-04-15T13:25:14.074Z,99915.56
2024-04-15T13:27:42.002Z,99905.59
2024-04-15T13:30:09.182Z,99896.56
2024-04-15T13:32:36.483Z,99892.63
2024-04-15T13:35:03.786Z,99887.59
2024-04-15T13:37:31.120Z,99875.72
2024-04-15T13:39:58.177Z,99874.25
2024-04-15T13:42:25.042Z,99859.97
2024-04-15T13:44:52.000Z,99866.47
2024-04-15T13:47:18.858Z,99859.66
2024-04-15T13:49:45.751Z,99848.25
2024-04-15T13:52:12.612Z,99842.63
2024-04-15T13:54:39.570Z,99833.53
2024-04-15T13:57:09.306Z,99816.53
2024-04-15T13:59:37.040Z,99824.09
2024-04-15T14:02:04.321Z,99823.44
2024-04-15T14:04:31.353Z,99812.44
2024-04-15T14:06:58.365Z,99815.28
2024-04-15T14:09:25.274Z,99801.09
2024-04-15T14:11:52.173Z,99794.31
2024-04-15T14:14:19.634Z,99799.16
2024-04-15T14:16:47.026Z,99791.44
2024-04-15T14:19:14.076Z,99779.91
2024-04-15T14:21:41.239Z,99775.09
2024-04-15T14:24:08.105Z,99774.72
2024-04-15T14:26:35.005Z,99767.53
2024-04-15T14:29:01.911Z,99759.34
2024-04-15T14:31:28.852Z,99750.28
2024-04-15T14:33:55.862Z,99746.06
2024-04-15T14:36:22.786Z,99733.78
2024-04-15T14:38:49.642Z,99734.81
2024-04-15T14:41:16.650Z,99725.50
2024-04-15T14:43:43.565Z,99704.84
2024-04-15T14:46:10.494Z,99705.16
2024-04-15T14:48:37.427Z,99702.47
2024-04-15T14:51:04.387Z,99692.59
2024-04-15T14:53:31.285Z,99692.34
2024-04-15T14:55:58.119Z,99682.41
2024-04-15T14:58:25.023Z,99687.78
2024-04-15T15:00:52.070Z,99674.94
2024-04-15T15:03:19.017Z,99666.31
2024-04-15T15:05:45.968Z,99671.19
2024-04-15T15:08:12.886Z,99658.34
2024-04-15T15:10:39.855Z,99648.50
2024-04-15T15:13:06.775Z,99648.50
2024-04-15T15:15:33.718Z,99647.31
2024-04-15T15:18:00.662Z,99629.97
2024-04-15T15:20:27.640Z,99631.56
2024-04-15T15:22:54.545Z,99625.94
2024-04-15T15:25:21.506Z,99623.38
2024-04-15T15:27:50.311Z,99612.28
2024-04-15T15:30:18.795Z,99604.81
2024-04-15T15:32:45.751Z,99604.78
2024-04-15T15:35:12.687Z,99597.22
2024-04-15T15:37:39.596Z,99585.59
2024-04-15T15:40:06.490Z,99583.31
2024-04-15T15:42:33.432Z,99568.06
2024-04-15T15:45:00.334Z,99569.19
2024-04-15T15:47:27.211Z,99558.88
2024-04-15T15:49:54.187Z,99546.56
2024-04-15T15:52:21.199Z,99540.59
2024-04-15T15:54:48.141Z,99538.91
2024-04-15T15:57:15.049Z,99531.69
2024-04-15T15:59:41.925Z,99523.09
2024-04-15T16:02:09.037Z,99516.47
2024-04-15T16:04:36.103Z,99504.75
2024-04-15T16:07:05.463Z,99493.63
2024-04-15T16:09:32.731Z,99493.19
2024-04-15T16:11:59.607Z,99482.47
2024-04-15T16:14:26.525Z,99485.56
2024-04-15T16:16:53.478Z,99478.59
2024-04-15T16:19:20.407Z,99464.41
2024-04-15T16:21:47.324Z,99456.16
2024-04-15T16:24:14.202Z,99459.78
2024-04-15T16:26:41.070Z,99447.66
2024-04-15T16:29:07.952Z,99438.06
2024-04-15T16:31:34.929Z,99440.22
2024-04-15T16:34:02.011Z,99425.34
2024-04-15T16:36:28.992Z,99432.00
2024-04-15T16:38:55.873Z,99429.75
2024-04-15T16:41:22.764Z,99426.16
2024-04-15T16:43:49.608Z,99419.00
2024-04-15T16:46:16.488Z,99419.50
2024-04-15T16:48:43.432Z,99424.28
2024-04-15T16:51:10.328Z,99408.53
2024-04-15T16:53:37.176Z,99412.16
2024-04-15T16:56:04.083Z,99402.84
2024-04-15T16:58:30.995Z,99393.78
2024-04-15T17:00:58.010Z,99401.63
2024-04-15T17:03:25.098Z,99369.56
2024-04-15T17:05:52.017Z,99357.31
2024-04-15T17:08:18.930Z,99350.59
2024-04-15T17:10:45.943Z,99372.38
2024-04-15T17:13:12.907Z,99400.44
2024-04-15T17:15:39.846Z,99368.88
2024-04-15T17:18:06.800Z,99355.88
2024-04-15T17:20:33.798Z,99359.06
2024-04-15T17:23:00.716Z,99363.31
2024-04-15T17:25:27.589Z,99353.97
2024-04-15T17:27:54.565Z,99359.63
2024-04-15T17:30:21.513Z,99353.28
2024-04-15T17:32:48.480Z,99347.56
2024-04-15T17:35:15.446Z,99343.78
2024-04-15T17:37:42.418Z,99336.84
2024-04-15T17:40:09.407Z,99343.28
2024-04-15T17:42:36.307Z,99335.50
2024-04-15T17:45:03.210Z,99334.13
2024-04-15T17:47:30.111Z,99346.13
2024-04-15T17:49:56.985Z,99333.16
2024-04-15T17:52:23.926Z,99331.94
2024-04-15T17:54:50.870Z,99320.69
2024-04-15T17:57:17.780Z,99306.25
2024-04-15T17:59:45.679Z,99295.72
2024-04-15T18:02:12.588Z,99289.88
2024-04-15T18:04:39.575Z,99286.94
2024-04-15T18:07:06.570Z,99275.50
2024-04-15T18:09:33.472Z,99275.94
2024-04-15T18:12:00.384Z,99260.34
2024-04-15T18:14:27.303Z,99260.19
2024-04-15T18:16:54.407Z,99258.97
2024-04-15T18:19:21.410Z,99259.03
2024-04-15T18:21:48.340Z,99260.91
2024-04-15T18:24:15.223Z,99243.41
2024-04-15T18:26:42.114Z,99242.28
2024-04-15T18:29:08.978Z,99243.09
2024-04-15T18:31:35.941Z,99240.34
2024-04-15T18:34:02.884Z,99240.34
2024-04-15T18:36:29.774Z,99242.09
2024-04-15T18:38:56.658Z,99235.41
2024-04-15T18:41:23.532Z,99229.13
2024-04-15T18:43:50.504Z,99228.75
2024-04-15T18:46:17.432Z,99218.09
2024-04-15T18:48:44.354Z,99217.94
2024-04-15T18:51:11.254Z,99209.69
2024-04-15T18:53:38.115Z,99211.75
2024-04-15T18:56:05.017Z,99210.28
2024-04-15T18:58:31.959Z,99201.53
2024-04-15T19:00:58.910Z,99198.59
2024-04-15T19:03:25.886Z,99196.75
2024-04-15T19:05:52.911Z,99191.94
2024-04-15T19:08:19.779Z,99196.94
2024-04-15T19:10:46.628Z,99196.13
2024-04-15T19:13:13.553Z,99189.69
2024-04-15T19:15:40.449Z,99186.59
2024-04-15T19:18:07.483Z,99193.25
2024-04-15T19:20:36.578Z,99187.66
2024-04-15T19:23:03.910Z,99176.78
2024-04-15T19:25:30.947Z,99176.63
2024-04-15T19:27:57.897Z,99172.66
2024-04-15T19:30:24.894Z,99156.00
2024-04-15T19:32:51.823Z,99143.94
2024-04-15T19:35:18.731Z,99137.72
2024-04-15T19:37:45.599Z,99126.88
2024-04-15T19:40:12.782Z,99135.44
2024-04-15T19:42:39.808Z,99123.09
2024-04-15T19:45:08.739Z,99131.84
2024-04-15T19:47:37.248Z,99141.19
2024-04-15T19:50:04.154Z,99138.03
2024-04-15T19:52:31.221Z,99146.78
2024-04-15T19:54:58.147Z,99136.06
2024-04-15T19:57:25.014Z,99129.94
2024-04-15T19:59:51.882Z,99118.44
2024-04-15T20:02:18.777Z,99105.69
2024-04-15T20:04:45.820Z,99091.13
2024-04-15T20:07:12.796Z,99093.78
2024-04-15T20:09:39.662Z,99081.47
2024-04-15T20:12:06.542Z,99083.31
2024-04-15T20:14:33.435Z,99073.56
2024-04-15T20:17:00.335Z,99081.03
2024-04-15T20:19:27.345Z,99073.13
2024-04-15T20:21:54.249Z,99069.19
2024-04-15T20:24:21.096Z,99072.72
2024-04-15T20:26:47.976Z,99062.94
2024-04-15T20:29:14.865Z,99073.97
2024-04-15T20:31:41.842Z,99103.38
2024-04-15T20:34:08.783Z,99106.03
2024-04-15T20:36:35.699Z,99128.03
2024-04-15T20:39:02.550Z,99135.69
2024-04-15T20:41:29.420Z,99145.09
2024-04-15T20:43:56.308Z,99171.81
2024-04-15T20:46:23.200Z,99185.31
2024-04-15T20:48:50.129Z,99200.69
2024-04-15T20:51:17.016Z,99199.31
2024-04-15T20:53:43.906Z,99205.94
2024-04-15T20:56:10.789Z,99224.16
2024-04-15T20:58:37.785Z,99219.09
2024-04-15T21:01:05.125Z,99226.16
2024-04-15T21:03:32.220Z,99238.66
2024-04-15T21:05:59.134Z,99225.81
2024-04-15T21:08:26.025Z,99225.91
2024-04-15T21:10:52.923Z,99225.72
2024-04-15T21:13:19.984Z,99231.88
2024-04-15T21:15:46.888Z,99243.41
2024-04-15T21:18:13.867Z,99248.41
2024-04-15T21:20:40.773Z,99255.09
2024-04-15T21:23:07.670Z,99255.22
2024-04-15T21:25:34.561Z,99258.00
2024-04-15T21:28:01.480Z,99261.44
2024-04-15T21:30:28.366Z,99268.59
2024-04-15T21:32:55.342Z,99274.13
2024-04-15T21:35:22.251Z,99274.50
2024-04-15T21:37:49.107Z,99274.63
2024-04-15T21:40:15.994Z,99272.63
2024-04-15T21:42:42.894Z,99278.13
2024-04-15T21:45:09.778Z,99286.84
2024-04-15T21:47:36.760Z,99296.56
2024-04-15T21:50:03.649Z,99297.75
2024-04-15T21:52:30.651Z,99310.25
2024-04-15T21:54:57.558Z,99299.03
2024-04-15T21:57:24.462Z,99304.44
2024-04-15T21:59:51.330Z,99314.34
2024-04-15T22:02:18.241Z,99307.31
2024-04-15T22:04:58.412Z,99300.84
2024-04-15T22:07:28.485Z,99311.06
2024-04-15T22:09:55.706Z,99312.41
2024-04-15T22:12:22.724Z,99334.06
2024-04-15T22:14:49.599Z,99344.50
2024-04-15T22:17:16.516Z,99352.38
2024-04-15T22:19:43.385Z,99333.94
2024-04-15T22:22:10.249Z,99332.75
2024-04-15T22:24:37.146Z,99316.97
2024-04-15T22:27:04.007Z,99318.31
2024-04-15T22:29:30.926Z,99307.03
2024-04-15T22:31:57.826Z,99323.69
2024-04-15T22:34:24.731Z,99326.53
2024-04-15T22:36:55.356Z,99320.50
2024-04-15T22:39:22.728Z,99332.75
2024-04-15T22:41:49.607Z,99328.06
2024-04-15T22:44:16.494Z,99332.09
2024-04-15T22:46:43.422Z,99338.94
2024-04-15T22:49:10.336Z,99343.50
2024-04-15T22:51:37.282Z,99337.63
2024-04-15T22:54:04.188Z,99346.38
2024-04-15T22:56:31.102Z,99340.13
2024-04-15T22:58:57.985Z,99344.00
2024-04-15T23:01:24.950Z,99339.13
2024-04-15T23:03:52.125Z,99359.78
2024-04-15T23:06:19.041Z,99361.97
2024-04-15T23:08:45.934Z,99358.25
2024-04-15T23:11:12.807Z,99372.88
2024-04-15T23:13:39.744Z,99364.47
2024-04-15T23:16:06.691Z,99368.34
2024-04-15T23:18:33.586Z,99367.53
2024-04-15T23:21:00.472Z,99370.72
2024-04-15T23:23:27.330Z,99373.75
2024-04-15T23:25:54.233Z,99363.66
2024-04-15T23:28:21.206Z,99367.84
2024-04-15T23:30:48.136Z,99367.53
2024-04-15T23:33:15.042Z,99380.13
2024-04-15T23:35:41.961Z,99379.94
2024-04-15T23:38:08.831Z,99373.38
2024-04-15T23:40:35.748Z,99386.31
2024-04-15T23:43:02.732Z,99381.81
2024-04-15T23:45:29.602Z,99390.50
2024-04-15T23:47:56.551Z,99392.38
2024-04-15T23:50:23.563Z,99378.44
2024-04-15T23:52:50.409Z,99395.06
2024-04-15T23:55:17.343Z,99382.97
2024-04-15T23:57:44.294Z,99386.81
